createdAt,value
2022-12-31T00:01:46.967Z,22.70
2022-12-31T00:04:18.984Z,20.83
2022-12-31T00:06:50.935Z,20.90
2022-12-31T00:09:22.908Z,20.58
2022-12-31T00:11:54.805Z,20.75
2022-12-31T00:14:26.720Z,20.17
2022-12-31T00:16:58.723Z,20.27
2022-12-31T00:19:30.636Z,20.90
2022-12-31T00:22:02.550Z,20.10
2022-12-31T00:24:35.973Z,19.70
2022-12-31T00:27:07.961Z,18.63
2022-12-31T00:29:39.951Z,20.17
2022-12-31T00:32:14.031Z,21.10
2022-12-31T00:34:45.917Z,21.55
2022-12-31T00:37:17.879Z,22.13
2022-12-31T00:39:53.591Z,22.30
2022-12-31T00:42:25.647Z,20.83
2022-12-31T00:44:59.959Z,20.65
2022-12-31T00:47:34.671Z,20.05
2022-12-31T00:50:07.082Z,21.35
2022-12-31T00:52:39.001Z,19.85
2022-12-31T00:55:10.964Z,20.45
2022-12-31T00:57:42.839Z,19.88
2022-12-31T01:00:15.680Z,18.98
2022-12-31T01:02:47.786Z,18.05
2022-12-31T01:05:19.818Z,18.45
2022-12-31T01:07:51.785Z,18.13
2022-12-31T01:10:42.179Z,19.52
2022-12-31T01:13:14.330Z,20.73
2022-12-31T01:15:46.448Z,21.02
2022-12-31T01:18:18.489Z,20.10
2022-12-31T01:20:50.509Z,20.35
2022-12-31T01:23:22.456Z,19.48
2022-12-31T01:25:54.348Z,19.85
2022-12-31T01:28:29.663Z,19.92
2022-12-31T01:31:14.912Z,19.40
2022-12-31T01:33:47.619Z,20.40
2022-12-31T01:36:26.000Z,19.83
2022-12-31T01:39:01.001Z,20.20
2022-12-31T01:41:44.649Z,18.90
2022-12-31T01:44:25.492Z,19.58
2022-12-31T01:47:01.077Z,18.10
2022-12-31T01:49:42.860Z,18.70
2022-12-31T01:52:45.446Z,19.20
2022-12-31T01:55:44.928Z,19.58
2022-12-31T01:58:27.775Z,19.25
2022-12-31T02:01:00.161Z,19.10
2022-12-31T02:03:32.259Z,20.08
2022-12-31T02:06:14.671Z,20.63
2022-12-31T02:08:46.672Z,20.27
2022-12-31T02:11:38.859Z,20.08
2022-12-31T02:14:36.025Z,20.17
2022-12-31T02:17:37.872Z,19.92
2022-12-31T02:22:56.250Z,19.67
2022-12-31T02:25:56.800Z,20.02
2022-12-31T02:28:47.100Z,19.17
2022-12-31T02:31:25.412Z,20.58
2022-12-31T02:34:13.759Z,21.55
2022-12-31T02:36:47.985Z,20.25
2022-12-31T02:39:20.368Z,19.50
2022-12-31T02:41:52.811Z,20.17
2022-12-31T02:44:35.854Z,20.13
2022-12-31T02:47:28.798Z,21.55
2022-12-31T02:50:22.539Z,20.30
2022-12-31T02:53:18.226Z,20.33
2022-12-31T02:55:50.167Z,20.30
2022-12-31T02:58:55.694Z,20.63
2022-12-31T03:01:55.403Z,21.63
2022-12-31T03:04:32.537Z,19.50
2022-12-31T03:07:10.747Z,21.13
2022-12-31T03:09:42.696Z,20.35
2022-12-31T03:12:33.941Z,21.15
2022-12-31T03:15:19.871Z,21.15
2022-12-31T03:18:00.117Z,20.63
2022-12-31T03:20:52.716Z,20.48
2022-12-31T03:23:37.456Z,21.70
2022-12-31T03:26:11.101Z,21.88
2022-12-31T03:28:47.982Z,21.88
2022-12-31T03:31:20.176Z,20.38
2022-12-31T03:33:52.127Z,20.65
2022-12-31T03:36:24.060Z,21.38
2022-12-31T03:38:55.990Z,21.20
2022-12-31T03:41:27.940Z,21.17
2022-12-31T03:43:59.843Z,20.42
2022-12-31T03:46:31.829Z,20.35
2022-12-31T03:49:03.693Z,20.40
2022-12-31T03:51:35.613Z,22.42
2022-12-31T03:54:07.503Z,23.23
2022-12-31T03:56:39.359Z,22.88
2022-12-31T03:59:11.466Z,24.98
2022-12-31T04:01:43.445Z,24.13
2022-12-31T04:04:15.463Z,25.08
2022-12-31T04:06:47.359Z,25.02
2022-12-31T04:09:19.338Z,26.77
2022-12-31T04:11:51.733Z,25.27
2022-12-31T04:14:23.703Z,25.05
2022-12-31T04:16:55.622Z,25.90
2022-12-31T04:19:27.548Z,27.13
2022-12-31T04:21:59.491Z,23.73
2022-12-31T04:24:31.482Z,25.52
2022-12-31T04:27:07.579Z,25.08
2022-12-31T04:29:40.166Z,24.80
2022-12-31T04:32:17.991Z,25.02
2022-12-31T04:34:53.028Z,24.48
2022-12-31T04:37:24.960Z,24.55
2022-12-31T04:40:01.891Z,22.38
2022-12-31T04:42:37.708Z,23.13
2022-12-31T04:45:10.080Z,24.48
2022-12-31T04:47:42.083Z,21.15
2022-12-31T04:50:14.108Z,19.55
2022-12-31T04:52:46.065Z,20.67
2022-12-31T04:55:18.074Z,18.20
2022-12-31T04:57:50.114Z,18.63
2022-12-31T05:00:23.145Z,19.92
2022-12-31T05:02:55.052Z,19.95
2022-12-31T05:05:26.985Z,19.08
2022-12-31T05:07:58.959Z,19.25
2022-12-31T05:10:30.952Z,18.20
2022-12-31T05:13:02.887Z,18.20
2022-12-31T05:15:35.106Z,16.85
2022-12-31T05:18:07.420Z,17.58
2022-12-31T05:20:39.490Z,16.40
2022-12-31T05:23:11.815Z,15.35
2022-12-31T05:25:45.345Z,17.63
2022-12-31T05:28:17.960Z,17.40
2022-12-31T05:30:50.815Z,16.65
2022-12-31T05:33:23.198Z,17.02
2022-12-31T05:35:57.922Z,15.75
2022-12-31T05:38:30.014Z,15.43
2022-12-31T05:41:04.420Z,16.45
2022-12-31T05:43:36.526Z,16.25
2022-12-31T05:46:08.907Z,15.95
2022-12-31T05:48:40.938Z,15.68
2022-12-31T05:51:12.887Z,16.17
2022-12-31T05:53:44.953Z,16.63
2022-12-31T05:56:17.901Z,16.48
2022-12-31T05:58:49.904Z,15.73
2022-12-31T06:01:22.079Z,16.92
2022-12-31T06:03:54.049Z,17.55
2022-12-31T06:06:26.227Z,18.17
2022-12-31T06:08:58.178Z,18.95
2022-12-31T06:11:30.082Z,18.70
2022-12-31T06:14:02.298Z,18.00
2022-12-31T06:16:34.491Z,19.83
2022-12-31T06:19:06.879Z,19.92
2022-12-31T06:21:38.862Z,18.48
2022-12-31T06:24:10.772Z,17.25
2022-12-31T06:26:42.774Z,18.20
2022-12-31T06:29:14.838Z,17.45
2022-12-31T06:31:46.754Z,19.20
2022-12-31T06:34:18.803Z,18.67
2022-12-31T06:36:50.712Z,19.05
2022-12-31T06:39:22.840Z,19.48
2022-12-31T06:41:54.955Z,19.65
2022-12-31T06:44:26.939Z,20.90
2022-12-31T06:46:58.878Z,21.20
2022-12-31T06:49:30.798Z,19.63
2022-12-31T06:52:02.719Z,19.70
2022-12-31T06:54:34.863Z,18.77
2022-12-31T06:57:08.815Z,17.98
2022-12-31T06:59:41.041Z,18.95
2022-12-31T07:02:27.609Z,18.70
2022-12-31T07:05:12.148Z,20.08
2022-12-31T07:07:54.757Z,19.70
2022-12-31T07:10:30.368Z,20.40
2022-12-31T07:13:15.651Z,21.52
2022-12-31T07:16:00.095Z,20.27
2022-12-31T07:18:44.279Z,22.15
2022-12-31T07:21:19.551Z,21.15
2022-12-31T07:23:51.785Z,21.45
2022-12-31T07:26:57.285Z,21.33
2022-12-31T07:29:50.687Z,21.23
2022-12-31T07:32:45.579Z,20.60
2022-12-31T07:35:31.295Z,20.33
2022-12-31T07:38:26.802Z,20.13
2022-12-31T07:41:10.416Z,21.00
2022-12-31T07:44:12.690Z,22.48
2022-12-31T07:46:59.389Z,20.10
2022-12-31T07:49:34.252Z,19.02
2022-12-31T07:52:07.554Z,37.58
2022-12-31T07:54:39.460Z,20.88
2022-12-31T07:57:13.462Z,20.23
2022-12-31T08:00:02.339Z,20.38
2022-12-31T08:03:03.158Z,20.90
2022-12-31T08:06:12.568Z,19.90
2022-12-31T08:09:03.350Z,20.02
2022-12-31T08:11:43.307Z,20.42
2022-12-31T08:14:15.606Z,18.25
2022-12-31T08:16:48.443Z,17.00
2022-12-31T08:19:30.536Z,17.25
2022-12-31T08:22:23.801Z,17.60
2022-12-31T08:25:19.777Z,17.80
2022-12-31T08:28:20.046Z,17.90
2022-12-31T08:31:00.992Z,17.55
2022-12-31T08:33:48.333Z,17.90
2022-12-31T08:36:30.950Z,18.38
2022-12-31T08:39:22.060Z,18.63
2022-12-31T08:41:58.090Z,19.23
2022-12-31T08:45:17.914Z,19.17
2022-12-31T08:48:15.088Z,18.13
2022-12-31T08:50:47.158Z,18.85
2022-12-31T08:53:19.312Z,18.02
2022-12-31T08:56:00.857Z,16.15
2022-12-31T09:01:28.190Z,18.00
2022-12-31T09:04:33.819Z,16.55
2022-12-31T09:07:07.615Z,16.05
2022-12-31T09:09:50.910Z,17.63
2022-12-31T09:12:32.196Z,17.20
2022-12-31T09:15:48.888Z,16.58
2022-12-31T09:18:21.199Z,18.10
2022-12-31T09:20:53.392Z,18.70
2022-12-31T09:23:25.576Z,18.00
2022-12-31T09:26:25.072Z,17.60
2022-12-31T09:29:17.616Z,17.23
2022-12-31T09:32:07.419Z,18.13
2022-12-31T09:34:45.332Z,18.15
2022-12-31T09:37:38.068Z,17.02
2022-12-31T09:40:33.432Z,17.70
2022-12-31T09:43:59.014Z,17.50
2022-12-31T09:46:53.279Z,18.80
2022-12-31T09:50:05.568Z,19.27
2022-12-31T09:53:06.370Z,18.75
2022-12-31T09:55:48.456Z,19.38
2022-12-31T09:58:38.843Z,17.63
2022-12-31T10:01:19.733Z,17.08
2022-12-31T10:04:15.943Z,17.25
2022-12-31T10:07:27.905Z,17.77
2022-12-31T10:10:26.498Z,17.98
2022-12-31T10:12:58.439Z,18.98
2022-12-31T10:16:09.917Z,18.42
2022-12-31T10:19:12.817Z,18.15
2022-12-31T10:21:59.314Z,17.98
2022-12-31T10:24:39.226Z,18.20
2022-12-31T10:27:21.319Z,17.52
2022-12-31T10:30:02.856Z,17.42
2022-12-31T10:35:42.837Z,18.10
2022-12-31T10:38:41.930Z,13.45
2022-12-31T10:41:56.107Z,13.07
2022-12-31T10:44:46.098Z,12.93
2022-12-31T10:47:28.826Z,13.20
2022-12-31T10:50:31.585Z,13.48
2022-12-31T10:53:06.585Z,15.18
2022-12-31T10:55:50.836Z,15.60
2022-12-31T10:58:53.490Z,15.57
2022-12-31T11:01:33.824Z,16.85
2022-12-31T11:04:28.775Z,17.23
2022-12-31T11:07:18.466Z,16.73
2022-12-31T11:09:58.947Z,17.38
2022-12-31T11:12:49.669Z,17.95
2022-12-31T11:15:23.208Z,17.50
2022-12-31T11:18:20.305Z,16.73
2022-12-31T11:21:03.236Z,15.93
2022-12-31T11:23:44.501Z,15.85
2022-12-31T11:26:22.195Z,17.15
2022-12-31T11:29:09.696Z,16.67
2022-12-31T11:31:54.818Z,16.30
2022-12-31T11:34:38.939Z,16.98
2022-12-31T11:37:31.869Z,18.02
2022-12-31T11:40:31.476Z,17.80
2022-12-31T11:43:29.890Z,17.75
2022-12-31T11:46:14.060Z,18.00
2022-12-31T11:48:46.218Z,20.20
2022-12-31T11:51:42.108Z,21.02
2022-12-31T11:54:46.557Z,20.17
2022-12-31T11:57:33.979Z,17.98
2022-12-31T12:00:20.874Z,18.10
2022-12-31T12:02:59.158Z,20.00
2022-12-31T12:05:33.510Z,18.05
2022-12-31T12:08:06.377Z,17.55
2022-12-31T12:10:58.092Z,18.83
2022-12-31T12:13:30.080Z,19.58
2022-12-31T12:16:06.226Z,18.55
2022-12-31T12:18:50.930Z,19.05
2022-12-31T12:21:25.466Z,18.38
2022-12-31T12:24:01.430Z,22.33
2022-12-31T12:26:35.855Z,27.75
2022-12-31T12:29:15.326Z,18.77
2022-12-31T12:32:02.221Z,19.83
2022-12-31T12:34:41.964Z,21.42
2022-12-31T12:37:35.454Z,37.30
2022-12-31T12:40:33.632Z,37.10
2022-12-31T12:43:23.643Z,20.50
2022-12-31T12:46:00.701Z,37.25
2022-12-31T12:48:42.753Z,20.17
2022-12-31T12:51:17.474Z,19.83
2022-12-31T12:53:49.464Z,21.02
2022-12-31T12:56:36.139Z,18.65
2022-12-31T12:59:29.818Z,18.42
2022-12-31T13:02:26.619Z,19.17
2022-12-31T13:05:20.497Z,20.50
2022-12-31T13:08:23.351Z,21.05
2022-12-31T13:11:17.728Z,18.42
2022-12-31T13:14:01.560Z,17.63
2022-12-31T13:17:23.788Z,19.77
2022-12-31T13:20:07.275Z,19.50
2022-12-31T13:22:47.904Z,18.55
2022-12-31T13:25:25.930Z,20.93
2022-12-31T13:28:04.020Z,20.58
2022-12-31T13:30:43.050Z,19.20
2022-12-31T13:33:41.057Z,19.08
2022-12-31T13:36:23.434Z,20.45
2022-12-31T13:39:00.840Z,19.73
2022-12-31T13:41:53.036Z,21.70
2022-12-31T13:44:30.870Z,21.45
2022-12-31T13:47:08.988Z,19.98
2022-12-31T13:49:48.390Z,20.27
2022-12-31T13:52:41.236Z,19.60
2022-12-31T13:55:37.135Z,20.90
2022-12-31T13:58:28.528Z,21.23
2022-12-31T14:01:18.925Z,18.95
2022-12-31T14:04:10.369Z,20.42
2022-12-31T14:07:00.132Z,20.55
2022-12-31T14:09:34.743Z,21.92
2022-12-31T14:12:23.920Z,20.20
2022-12-31T14:15:18.270Z,19.98
2022-12-31T14:18:05.086Z,38.35
2022-12-31T14:20:57.279Z,32.17
2022-12-31T14:23:48.013Z,20.92
2022-12-31T14:26:27.636Z,21.17
2022-12-31T14:29:12.113Z,20.88
2022-12-31T14:31:50.170Z,19.88
2022-12-31T14:34:47.578Z,23.13
2022-12-31T14:38:00.521Z,24.75
2022-12-31T14:40:44.902Z,24.17
2022-12-31T14:43:25.827Z,25.00
2022-12-31T14:46:10.524Z,25.52
2022-12-31T14:49:01.759Z,26.48
2022-12-31T14:51:37.123Z,25.48
2022-12-31T14:54:39.789Z,26.02
2022-12-31T14:57:24.422Z,24.65
2022-12-31T15:00:01.902Z,25.88
2022-12-31T15:02:35.428Z,25.60
2022-12-31T15:05:10.744Z,25.95
2022-12-31T15:07:48.919Z,27.25
2022-12-31T15:10:36.177Z,26.80
2022-12-31T15:13:17.241Z,26.92
2022-12-31T15:15:58.818Z,25.75
2022-12-31T15:18:44.926Z,24.73
2022-12-31T15:21:53.163Z,26.10
2022-12-31T15:24:28.035Z,26.85
2022-12-31T15:27:06.165Z,28.00
2022-12-31T15:29:45.362Z,26.50
2022-12-31T15:32:27.188Z,28.73
2022-12-31T15:35:26.920Z,28.00
2022-12-31T15:38:01.995Z,28.42
2022-12-31T15:40:46.977Z,28.95
2022-12-31T15:43:25.031Z,28.80
2022-12-31T15:45:58.366Z,28.45
2022-12-31T15:48:55.437Z,28.27
2022-12-31T15:51:56.177Z,29.35
2022-12-31T15:54:37.491Z,29.98
2022-12-31T15:57:29.205Z,30.17
2022-12-31T16:00:05.549Z,28.80
2022-12-31T16:02:43.111Z,30.08
2022-12-31T16:05:24.465Z,32.33
2022-12-31T16:07:59.274Z,31.10
2022-12-31T16:10:32.637Z,31.70
2022-12-31T16:13:06.218Z,30.08
2022-12-31T16:15:38.943Z,31.05
2022-12-31T16:18:20.598Z,30.85
2022-12-31T16:20:54.895Z,30.02
2022-12-31T16:23:28.040Z,29.15
2022-12-31T16:26:02.159Z,28.02
2022-12-31T16:28:34.427Z,28.23
2022-12-31T16:31:08.040Z,27.98
2022-12-31T16:33:40.073Z,29.10
2022-12-31T16:36:23.441Z,30.30
2022-12-31T16:39:26.082Z,29.58
2022-12-31T16:42:09.800Z,32.78
2022-12-31T16:44:42.180Z,31.77
2022-12-31T16:47:20.151Z,30.20
2022-12-31T16:50:04.096Z,29.70
2022-12-31T16:52:39.251Z,33.45
2022-12-31T16:55:23.390Z,31.88
2022-12-31T16:58:06.874Z,34.67
2022-12-31T17:00:39.286Z,40.92
2022-12-31T17:03:24.003Z,36.28
2022-12-31T17:06:09.545Z,32.50
2022-12-31T17:08:43.336Z,34.58
2022-12-31T17:11:48.225Z,34.67
2022-12-31T17:14:23.282Z,32.58
2022-12-31T17:17:02.605Z,32.67
2022-12-31T17:19:35.778Z,34.33
2022-12-31T17:22:32.854Z,35.28
2022-12-31T17:25:20.333Z,41.30
2022-12-31T17:28:07.212Z,41.00
2022-12-31T17:30:40.336Z,38.45
2022-12-31T17:33:12.280Z,32.28
2022-12-31T17:35:45.172Z,36.80
2022-12-31T17:38:25.609Z,41.25
2022-12-31T17:41:06.291Z,43.10
2022-12-31T17:43:39.438Z,39.75
2022-12-31T17:46:14.945Z,38.47
2022-12-31T17:48:52.427Z,37.47
2022-12-31T17:51:24.856Z,35.13
2022-12-31T17:53:58.624Z,35.30
2022-12-31T17:56:30.600Z,33.88
2022-12-31T17:59:06.612Z,35.88
2022-12-31T18:01:38.783Z,36.35
2022-12-31T18:04:19.100Z,34.10
2022-12-31T18:06:51.125Z,35.38
2022-12-31T18:09:23.187Z,34.28
2022-12-31T18:11:58.283Z,37.35
2022-12-31T18:14:33.805Z,41.60
2022-12-31T18:17:09.671Z,40.58
2022-12-31T18:20:07.067Z,38.38
2022-12-31T18:22:34.212Z,37.13
2022-12-31T18:25:07.344Z,42.50
2022-12-31T18:27:41.993Z,39.35
2022-12-31T18:30:16.502Z,38.42
2022-12-31T18:32:48.659Z,36.63
2022-12-31T18:38:16.963Z,39.00
2022-12-31T18:40:58.231Z,34.13
2022-12-31T18:43:30.147Z,34.10
2022-12-31T18:46:02.145Z,32.95
2022-12-31T18:48:34.123Z,34.65
2022-12-31T18:51:06.145Z,37.08
2022-12-31T18:53:38.082Z,65.07
2022-12-31T18:56:16.125Z,41.58
2022-12-31T18:58:48.307Z,33.63
2022-12-31T19:01:34.880Z,35.17
2022-12-31T19:04:28.014Z,36.60
2022-12-31T19:07:00.500Z,36.72
2022-12-31T19:09:51.391Z,34.80
2022-12-31T19:12:24.590Z,34.88
2022-12-31T19:14:56.563Z,36.17
2022-12-31T19:17:28.451Z,38.70
2022-12-31T19:20:04.453Z,45.85
2022-12-31T19:22:36.332Z,47.63
2022-12-31T19:25:23.813Z,44.58
2022-12-31T19:27:55.849Z,42.97
2022-12-31T19:30:32.988Z,41.60
2022-12-31T19:33:04.972Z,41.40
2022-12-31T19:35:38.528Z,39.00
2022-12-31T19:38:23.094Z,40.67
2022-12-31T19:40:55.553Z,39.25
2022-12-31T19:43:27.717Z,38.63
2022-12-31T19:46:03.727Z,35.38
2022-12-31T19:48:36.213Z,39.47
2022-12-31T19:51:14.993Z,64.50
2022-12-31T19:53:48.454Z,48.85
2022-12-31T19:56:20.607Z,52.45
2022-12-31T19:58:52.534Z,50.15
2022-12-31T20:01:25.479Z,42.00
2022-12-31T20:03:57.568Z,37.97
2022-12-31T20:06:29.519Z,35.83
2022-12-31T20:09:03.375Z,34.55
2022-12-31T20:11:54.389Z,35.42
2022-12-31T20:14:26.448Z,51.55
2022-12-31T20:16:58.657Z,37.03
2022-12-31T20:19:30.799Z,35.15
2022-12-31T20:22:02.991Z,35.47
2022-12-31T20:24:34.901Z,37.70
2022-12-31T20:27:10.985Z,35.00
2022-12-31T20:29:46.943Z,34.08
2022-12-31T20:32:19.032Z,33.00
2022-12-31T20:34:51.050Z,32.30
2022-12-31T20:37:23.075Z,32.30
2022-12-31T20:39:54.980Z,34.42
2022-12-31T20:42:27.033Z,35.47
2022-12-31T20:44:59.005Z,35.25
2022-12-31T20:47:30.929Z,35.33
2022-12-31T20:50:12.024Z,36.45
2022-12-31T20:52:44.688Z,39.60
2022-12-31T20:55:18.172Z,39.17
2022-12-31T20:57:50.160Z,36.55
2022-12-31T21:00:22.207Z,41.58
2022-12-31T21:03:04.918Z,39.92
2022-12-31T21:05:48.020Z,39.03
2022-12-31T21:08:20.880Z,38.83
2022-12-31T21:10:52.908Z,40.72
2022-12-31T21:13:25.135Z,40.92
2022-12-31T21:15:57.096Z,42.25
2022-12-31T21:18:29.065Z,39.88
2022-12-31T21:21:01.408Z,39.78
2022-12-31T21:23:33.462Z,41.95
2022-12-31T21:26:05.845Z,41.40
2022-12-31T21:28:37.816Z,39.75
2022-12-31T21:31:12.976Z,42.42
2022-12-31T21:33:47.105Z,47.65
2022-12-31T21:36:19.151Z,44.55
2022-12-31T21:38:51.192Z,52.45
2022-12-31T21:41:41.720Z,46.80
2022-12-31T21:44:13.758Z,48.85
2022-12-31T21:47:15.788Z,46.20
2022-12-31T21:49:37.798Z,44.92
2022-12-31T21:52:28.550Z,53.70
2022-12-31T21:55:20.988Z,49.03
2022-12-31T21:58:25.190Z,44.65
2022-12-31T22:01:03.918Z,42.25
2022-12-31T22:03:35.971Z,43.93
2022-12-31T22:06:16.294Z,44.13
2022-12-31T22:08:54.379Z,44.28
2022-12-31T22:11:28.082Z,41.70
2022-12-31T22:14:00.047Z,46.42
2022-12-31T22:16:32.058Z,45.03
2022-12-31T22:19:04.191Z,51.60
2022-12-31T22:21:36.183Z,55.83
2022-12-31T22:24:08.820Z,50.78
2022-12-31T22:26:46.412Z,50.25
2022-12-31T22:29:19.839Z,47.13
2022-12-31T22:31:54.509Z,41.72
2022-12-31T22:34:29.979Z,38.22
2022-12-31T22:37:14.391Z,36.40
2022-12-31T22:39:53.859Z,35.33
2022-12-31T22:42:25.815Z,36.65
2022-12-31T22:44:57.730Z,35.28
2022-12-31T22:47:29.617Z,35.35
2022-12-31T22:50:01.597Z,33.78
2022-12-31T22:52:33.549Z,33.67
2022-12-31T22:55:05.954Z,31.65
2022-12-31T22:57:37.966Z,33.13
2022-12-31T23:00:13.739Z,33.90
2022-12-31T23:02:46.254Z,36.97
2022-12-31T23:05:18.193Z,240.25
2022-12-31T23:07:50.115Z,155.05
2022-12-31T23:10:40.504Z,141.52
2022-12-31T23:13:31.369Z,202.85
2022-12-31T23:16:22.239Z,274.05
2022-12-31T23:19:12.678Z,269.63
2022-12-31T23:22:03.499Z,85.65
2022-12-31T23:24:35.532Z,144.65
2022-12-31T23:27:08.553Z,183.77
2022-12-31T23:29:46.718Z,101.13
2022-12-31T23:32:19.870Z,96.15
2022-12-31T23:34:53.441Z,86.75
2022-12-31T23:37:25.399Z,89.18
2022-12-31T23:39:57.422Z,91.93
2022-12-31T23:42:29.336Z,91.90
2022-12-31T23:45:01.344Z,91.00
2022-12-31T23:47:33.272Z,89.88
2022-12-31T23:50:06.220Z,91.53
2022-12-31T23:52:38.202Z,96.43
2022-12-31T23:55:10.144Z,89.70
2022-12-31T23:57:42.032Z,79.43
